Time;durP1;ratioP1;P1;durP2;ratioP2;P2;SDS_P1;SDS_P2;PMS_P1;PMS_P2;Temp;Humidity;BMP_temperature;BMP_pressure;BME280_temperature;BME280_humidity;BME280_pressure;Samples;Min_cycle;Max_cycle;Signal;HPM_P1;HPM_P2
2023/12/01 00:00:16;;;;;;;;;;;;;;;29.82;69.25;100960.38;5045758;28;69921;-33
2023/12/01 00:02:45;;;;;;;;;;;;;;;29.84;69.64;100974.50;5056349;28;67251;-33
2023/12/01 00:05:15;;;;;;;;;;;;;;;29.90;69.39;100977.41;5043481;28;68988;-33
2023/12/01 00:07:45;;;;;;;;;;;;;;;29.93;70.56;100971.59;5031084;28;64216;-35
2023/12/01 00:10:14;;;;;;;;;;;;;;;29.96;70.34;100971.16;5044803;28;70677;-33
2023/12/01 00:12:44;;;;;;;;;;;;;;;29.99;70.43;100970.72;5046241;28;66658;-33
2023/12/01 00:15:13;;;;;;;;;;;;;;;30.01;70.73;100974.06;5045351;28;69257;-34
2023/12/01 00:17:43;;;;;;;;;;;;;;;30.03;70.47;100983.63;5044714;28;67105;-33
2023/12/01 00:20:12;;;;;;;;;;;;;;;30.05;70.75;100980.69;5045771;28;70240;-34
2023/12/01 00:22:42;;;;;;;;;;;;;;;30.06;71.21;100987.75;5044354;28;67148;-34
2023/12/01 00:25:11;;;;;;;;;;;;;;;30.09;71.81;100981.09;5045546;28;70629;-33
2023/12/01 00:27:41;;;;;;;;;;;;;;;30.12;72.11;100989.63;5044785;28;65669;-33
2023/12/01 00:30:11;;;;;;;;;;;;;;;30.15;71.95;100985.69;5042240;28;70348;-33
2023/12/01 00:32:41;;;;;;;;;;;;;;;30.15;68.95;100985.69;5044734;28;65790;-32
2023/12/01 00:35:10;;;;;;;;;;;;;;;30.18;67.41;100991.47;5041720;28;69085;-33
2023/12/01 00:37:40;;;;;;;;;;;;;;;30.23;67.01;100994.41;5041839;28;66351;-33
2023/12/01 00:40:10;;;;;;;;;;;;;;;30.25;66.22;100989.59;5041667;28;70985;-33
2023/12/01 00:42:42;;;;;;;;;;;;;;;30.28;65.57;100991.91;5040616;28;65346;-33
2023/12/01 00:45:12;;;;;;;;;;;;;;;30.33;65.41;100993.13;5041145;28;69994;-33
2023/12/01 00:47:41;;;;;;;;;;;;;;;30.35;64.92;100988.34;5039020;28;67099;-33
2023/12/01 00:50:11;;;;;;;;;;;;;;;30.38;64.88;100990.63;5040008;28;70653;-33
2023/12/01 00:52:41;;;;;;;;;;;;;;;30.41;64.45;100998.31;5040426;28;67191;-33
2023/12/01 00:55:12;;;;;;;;;;;;;;;30.42;64.60;100998.09;5021869;28;70306;-32
2023/12/01 00:57:42;;;;;;;;;;;;;;;30.44;63.73;100990.56;5025182;28;66765;-34
2023/12/01 01:00:12;;;;;;;;;;;;;;;30.46;63.83;100995.78;5024039;28;70432;-34
2023/12/01 01:02:42;;;;;;;;;;;;;;;30.47;63.77;101000.16;5003639;28;67216;-33
2023/12/01 01:05:11;;;;;;;;;;;;;;;30.49;63.92;101009.72;5034444;28;69116;-32
2023/12/01 01:07:41;;;;;;;;;;;;;;;30.51;63.68;101012.22;5025469;28;66830;-35
2023/12/01 01:10:10;;;;;;;;;;;;;;;30.53;63.86;101009.28;5044215;28;71293;-33
2023/12/01 01:12:40;;;;;;;;;;;;;;;30.54;63.37;101011.78;5039065;28;66535;-34
2023/12/01 01:15:09;;;;;;;;;;;;;;;30.55;63.40;101016.16;5054248;28;69085;-34
2023/12/01 01:17:39;;;;;;;;;;;;;;;30.57;63.58;101022.19;5038354;28;66394;-34
2023/12/01 01:20:10;;;;;;;;;;;;;;;30.57;63.61;101016.78;5039251;28;70953;-33
2023/12/01 01:22:39;;;;;;;;;;;;;;;30.48;63.28;101001.81;5039031;28;65953;-33
2023/12/01 01:25:09;;;;;;;;;;;;;;;30.60;63.49;101021.75;5038778;28;70590;-34
2023/12/01 01:27:39;;;;;;;;;;;;;;;30.61;63.43;101017.97;5039491;28;66090;-33
2023/12/01 01:30:09;;;;;;;;;;;;;;;30.61;63.25;101023.41;5039166;28;70713;-33
2023/12/01 01:32:56;;;;;;;;;;;;;;;30.64;63.37;101022.13;5040108;28;66841;-32
2023/12/01 01:35:26;;;;;;;;;;;;;;;30.65;62.72;101030.06;5039421;28;70859;-33
2023/12/01 01:37:56;;;;;;;;;;;;;;;30.66;62.95;101036.31;5038228;28;66406;-32
2023/12/01 01:40:25;;;;;;;;;;;;;;;30.67;62.75;101038.81;5039660;28;70339;-34
2023/12/01 01:42:55;;;;;;;;;;;;;;;30.69;62.72;101025.03;5020996;28;66336;-33
2023/12/01 01:45:24;;;;;;;;;;;;;;;30.70;62.89;101038.38;5019035;28;70789;-33
2023/12/01 01:47:54;;;;;;;;;;;;;;;30.71;62.60;101031.91;5039017;28;66472;-33
2023/12/01 01:50:24;;;;;;;;;;;;;;;30.73;62.76;101034.41;5032589;28;70799;-32
2023/12/01 01:52:54;;;;;;;;;;;;;;;30.75;63.18;101040.41;5018734;28;66794;-33
2023/12/01 01:55:24;;;;;;;;;;;;;;;30.76;63.05;101047.50;5039409;28;72218;-33
2023/12/01 01:57:55;;;;;;;;;;;;;;;30.78;62.56;101055.41;5021242;28;67976;-33
2023/12/01 02:00:26;;;;;;;;;;;;;;;30.80;62.75;101050.66;5025134;28;70616;-32
2023/12/01 02:02:55;;;;;;;;;;;;;;;30.81;62.58;101049.59;5039251;28;65639;-33
2023/12/01 02:05:25;;;;;;;;;;;;;;;30.83;62.65;101058.34;5021153;28;70280;-32
2023/12/01 02:07:55;;;;;;;;;;;;;;;30.84;62.83;101054.56;5052239;28;66545;-33
2023/12/01 02:10:24;;;;;;;;;;;;;;;30.85;63.00;101056.25;5020926;28;69716;-33
2023/12/01 02:12:54;;;;;;;;;;;;;;;30.87;62.80;101059.53;5055518;28;67912;-33
2023/12/01 02:15:32;;;;;;;;;;;;;;;30.89;62.59;101057.47;5007460;28;69295;-32
2023/12/01 02:18:01;;;;;;;;;;;;;;;30.88;62.79;101055.81;4993572;28;66320;-32
2023/12/01 02:20:31;;;;;;;;;;;;;;;30.92;62.77;101051.59;5037605;28;68641;-33
2023/12/01 02:23:03;;;;;;;;;;;;;;;30.93;63.06;101056.00;5005214;28;65524;-32
2023/12/01 02:25:33;;;;;;;;;;;;;;;30.94;62.77;101052.22;5040159;28;70729;-32
2023/12/01 02:28:03;;;;;;;;;;;;;;;30.96;62.95;101052.84;5036796;28;66253;-33
2023/12/01 02:30:43;;;;;;;;;;;;;;;30.97;62.40;101049.09;5097301;27;43633;-34
2023/12/01 02:33:15;;;;;;;;;;;;;;;30.99;62.53;101052.41;5097017;27;69864;-34
2023/12/01 02:36:06;;;;;;;;;;;;;;;31.01;62.81;101050.34;5094923;27;66425;-33
2023/12/01 02:38:36;;;;;;;;;;;;;;;31.02;62.16;101041.16;5094813;27;69873;-34
2023/12/01 02:41:06;;;;;;;;;;;;;;;31.05;62.51;101042.59;5076601;27;67027;-33
2023/12/01 02:43:35;;;;;;;;;;;;;;;31.05;62.55;101035.28;5096439;27;70083;-33
2023/12/01 02:46:05;;;;;;;;;;;;;;;31.08;62.46;101039.44;5096362;27;66208;-34
2023/12/01 02:48:34;;;;;;;;;;;;;;;31.09;62.78;101027.53;5093070;27;70552;-35
2023/12/01 02:51:04;;;;;;;;;;;;;;;31.11;62.34;101022.75;5128458;27;65271;-34
2023/12/01 02:53:34;;;;;;;;;;;;;;;31.12;62.48;101011.69;5095663;27;70488;-34
2023/12/01 02:56:04;;;;;;;;;;;;;;;31.14;62.28;101015.00;5078953;27;65798;-34
2023/12/01 02:58:33;;;;;;;;;;;;;;;31.16;62.67;101010.19;5095110;27;71081;-33
2023/12/01 03:01:04;;;;;;;;;;;;;;;31.19;62.38;101008.09;5094533;27;65973;-33
2023/12/01 03:03:34;;;;;;;;;;;;;;;31.20;62.03;100998.91;5094838;27;70543;-33
2023/12/01 03:06:04;;;;;;;;;;;;;;;31.22;62.00;100991.41;5083370;27;66117;-34
2023/12/01 03:08:33;;;;;;;;;;;;;;;31.25;62.31;100990.97;5095016;27;70104;-33
2023/12/01 03:11:06;;;;;;;;;;;;;;;31.26;62.02;100981.78;5094808;27;66840;-34
2023/12/01 03:13:35;;;;;;;;;;;;;;;31.29;62.01;100978.66;5094069;27;70681;-34
2023/12/01 03:16:05;;;;;;;;;;;;;;;31.29;62.25;100975.94;5094671;27;66240;-33
2023/12/01 03:18:35;;;;;;;;;;;;;;;31.32;62.14;100972.78;5129676;27;70296;-34
2023/12/01 03:21:12;;;;;;;;;;;;;;;31.33;62.28;100969.84;5087793;27;66891;-33
2023/12/01 03:23:44;;;;;;;;;;;;;;;31.36;62.11;100965.88;5093719;27;70323;-33
2023/12/01 03:26:16;;;;;;;;;;;;;;;31.38;62.30;100969.22;5097300;27;66477;-35
2023/12/01 03:28:46;;;;;;;;;;;;;;;31.40;61.90;100961.69;5077940;27;70301;-33
2023/12/01 03:31:16;;;;;;;;;;;;;;;31.42;62.08;100956.84;5087742;27;66432;-33
2023/12/01 03:33:46;;;;;;;;;;;;;;;31.44;62.00;100952.06;5094393;27;70140;-33
2023/12/01 03:36:16;;;;;;;;;;;;;;;31.46;62.19;100943.72;5094229;27;66914;-34
2023/12/01 03:38:45;;;;;;;;;;;;;;;31.47;62.21;100940.75;5094664;27;70108;-34
2023/12/01 03:41:15;;;;;;;;;;;;;;;31.49;61.62;100944.09;5085315;27;66286;-34
2023/12/01 03:43:45;;;;;;;;;;;;;;;31.52;61.82;100953.66;5082488;27;69751;-37
2023/12/01 03:46:14;;;;;;;;;;;;;;;31.54;61.74;100941.53;5080465;27;66215;-35
2023/12/01 03:48:44;;;;;;;;;;;;;;;31.56;61.71;100944.00;5082234;28;70760;-35
2023/12/01 03:51:13;;;;;;;;;;;;;;;31.58;61.67;100942.75;5082960;27;66252;-35
2023/12/01 03:53:43;;;;;;;;;;;;;;;31.60;61.39;100940.63;5078678;28;68935;-35
2023/12/01 03:56:12;;;;;;;;;;;;;;;31.63;61.44;100924.97;5068154;27;66557;-34
2023/12/01 03:58:42;;;;;;;;;;;;;;;31.65;61.65;100917.44;5080357;28;69944;-34
2023/12/01 04:01:12;;;;;;;;;;;;;;;31.67;61.49;100908.03;5080059;27;66340;-34
2023/12/01 04:03:42;;;;;;;;;;;;;;;31.70;61.76;100909.44;5082074;27;70428;-34
2023/12/01 04:06:13;;;;;;;;;;;;;;;31.73;61.28;100914.44;5081874;28;67051;-34
2023/12/01 04:08:42;;;;;;;;;;;;;;;31.75;61.23;100898.75;5079539;27;70659;-34
2023/12/01 04:11:12;;;;;;;;;;;;;;;31.77;61.35;100902.09;5081639;27;66583;-34
2023/12/01 04:13:43;;;;;;;;;;;;;;;31.79;61.31;100894.56;5081340;28;70940;-34
2023/12/01 04:16:12;;;;;;;;;;;;;;;31.81;61.14;100892.44;5079830;28;67703;-34
2023/12/01 04:18:45;;;;;;;;;;;;;;;31.83;60.73;100891.16;5079805;28;70333;-34
2023/12/01 04:21:15;;;;;;;;;;;;;;;31.86;61.07;100879.03;5080416;28;66963;-34
2023/12/01 04:23:44;;;;;;;;;;;;;;;31.88;60.87;100882.34;5078717;27;70025;-34
2023/12/01 04:26:14;;;;;;;;;;;;;;;31.90;60.95;100885.66;5081617;27;66671;-35
2023/12/01 04:28:44;;;;;;;;;;;;;;;31.92;61.13;100878.13;5081143;27;70534;-34
2023/12/01 04:31:14;;;;;;;;;;;;;;;31.94;60.97;100867.91;5077585;28;66538;-34
2023/12/01 04:33:44;;;;;;;;;;;;;;;31.97;60.85;100872.84;5080190;27;70557;-34
2023/12/01 04:36:23;;;;;;;;;;;;;;;31.98;60.76;100860.97;5080099;28;66020;-34
2023/12/01 04:38:53;;;;;;;;;;;;;;;31.99;60.58;100862.63;5080984;27;68825;-34
2023/12/01 04:41:23;;;;;;;;;;;;;;;32.02;60.74;100856.72;5081413;27;66094;-35
2023/12/01 04:43:52;;;;;;;;;;;;;;;32.03;60.58;100852.94;5080347;27;70005;-34
2023/12/01 04:46:22;;;;;;;;;;;;;;;32.05;60.49;100839.16;5082120;27;65942;-35
2023/12/01 04:48:53;;;;;;;;;;;;;;;32.07;60.52;100836.22;5082085;27;69652;-35
2023/12/01 04:51:23;;;;;;;;;;;;;;;32.08;60.84;100832.44;5061371;28;66256;-34
2023/12/01 04:53:52;;;;;;;;;;;;;;;32.11;60.46;100837.41;5074431;28;70352;-34
2023/12/01 04:56:22;;;;;;;;;;;;;;;32.10;60.70;100831.16;5082261;27;66871;-34
2023/12/01 04:58:55;;;;;;;;;;;;;;;32.14;60.52;100831.53;5080290;27;69646;-33
2023/12/01 05:01:26;;;;;;;;;;;;;;;32.16;60.48;100818.56;5080811;28;66530;-34
2023/12/01 05:03:56;;;;;;;;;;;;;;;32.17;60.60;100821.03;5081435;27;70785;-34
2023/12/01 05:06:26;;;;;;;;;;;;;;;32.19;60.40;100818.09;5079473;28;66085;-34
2023/12/01 05:08:56;;;;;;;;;;;;;;;32.20;60.34;100808.88;5081761;27;70076;-35
2023/12/01 05:11:26;;;;;;;;;;;;;;;32.21;60.35;100802.41;5080379;28;66664;-34
2023/12/01 05:13:56;;;;;;;;;;;;;;;32.23;60.22;100803.00;5078986;27;69774;-33
2023/12/01 05:16:26;;;;;;;;;;;;;;;32.24;60.36;100804.66;5081522;27;66485;-34
2023/12/01 05:18:55;;;;;;;;;;;;;;;32.26;60.29;100794.38;5074846;27;68987;-35
2023/12/01 05:21:48;;;;;;;;;;;;;;;32.27;60.20;100787.91;5078336;28;66241;-34
2023/12/01 05:24:17;;;;;;;;;;;;;;;32.28;60.21;100779.53;5082591;27;70485;-33
2023/12/01 05:26:47;;;;;;;;;;;;;;;32.29;60.20;100777.66;5081462;27;66786;-33
2023/12/01 05:29:19;;;;;;;;;;;;;;;32.32;60.02;100776.34;5081564;28;69850;-32
2023/12/01 05:31:49;;;;;;;;;;;;;;;32.33;60.00;100765.25;5080872;27;66081;-34
2023/12/01 05:34:19;;;;;;;;;;;;;;;32.36;59.88;100769.41;5079522;27;70066;-33
2023/12/01 05:36:50;;;;;;;;;;;;;;;32.36;59.83;100759.38;5068012;28;66362;-34
2023/12/01 05:39:20;;;;;;;;;;;;;;;32.39;59.76;100756.19;5080741;27;69710;-34
2023/12/01 05:41:49;;;;;;;;;;;;;;;32.40;59.89;100744.28;5079088;28;65974;-35
2023/12/01 05:44:19;;;;;;;;;;;;;;;32.41;59.71;100748.63;5081018;27;70269;-35
2023/12/01 05:46:49;;;;;;;;;;;;;;;32.41;59.60;100739.69;5080662;28;66872;-33
2023/12/01 05:49:18;;;;;;;;;;;;;;;32.44;59.61;100745.44;5078155;27;70661;-35
2023/12/01 05:51:48;;;;;;;;;;;;;;;32.46;59.66;100743.38;5080647;27;65572;-35
2023/12/01 05:54:18;;;;;;;;;;;;;;;32.47;59.45;100726.00;5076935;28;70085;-33
2023/12/01 05:56:47;;;;;;;;;;;;;;;32.49;59.47;100723.88;5069806;28;65560;-34
2023/12/01 05:59:17;;;;;;;;;;;;;;;32.52;59.58;100719.06;5080112;27;69651;-34
2023/12/01 06:01:48;;;;;;;;;;;;;;;32.53;59.50;100716.09;5080869;28;66203;-33
2023/12/01 06:04:17;;;;;;;;;;;;;;;32.55;59.32;100713.16;5078240;27;70267;-33
2023/12/01 06:06:47;;;;;;;;;;;;;;;32.57;59.32;100716.44;5079452;28;66010;-34
2023/12/01 06:09:17;;;;;;;;;;;;;;;32.59;59.50;100708.91;5080660;28;70150;-34
2023/12/01 06:11:46;;;;;;;;;;;;;;;32.60;59.35;100694.28;5078298;27;66908;-33
2023/12/01 06:14:16;;;;;;;;;;;;;;;32.61;59.41;100691.31;5080240;27;70254;-33
2023/12/01 06:16:46;;;;;;;;;;;;;;;32.63;59.20;100689.19;5079864;28;65887;-33
2023/12/01 06:19:15;;;;;;;;;;;;;;;32.65;59.11;100676.19;5078545;28;70378;-34
2023/12/01 06:21:45;;;;;;;;;;;;;;;32.68;59.01;100672.16;5080131;28;65773;-34
2023/12/01 06:24:14;;;;;;;;;;;;;;;32.69;59.18;100665.69;5080190;27;70681;-34
2023/12/01 06:26:46;;;;;;;;;;;;;;;32.72;58.98;100659.78;5078302;27;66405;-34
2023/12/01 06:29:16;;;;;;;;;;;;;;;32.72;58.95;100655.16;5080211;27;69232;-33
2023/12/01 06:31:45;;;;;;;;;;;;;;;32.76;58.96;100651.97;5080255;27;66561;-34
2023/12/01 06:34:15;;;;;;;;;;;;;;;32.76;58.71;100644.63;5077989;27;70553;-34
2023/12/01 06:36:45;;;;;;;;;;;;;;;32.79;58.68;100644.19;5077808;28;65101;-33
2023/12/01 06:39:17;;;;;;;;;;;;;;;32.81;58.71;100635.78;5080166;28;70405;-33
2023/12/01 06:41:47;;;;;;;;;;;;;;;32.82;58.76;100632.84;5077853;27;66762;-34
2023/12/01 06:44:17;;;;;;;;;;;;;;;32.85;58.57;100637.78;5079732;27;69981;-34
2023/12/01 06:46:46;;;;;;;;;;;;;;;32.86;58.75;100627.75;5079381;27;66046;-33
2023/12/01 06:49:16;;;;;;;;;;;;;;;32.87;58.89;100624.78;5077947;27;70090;-33
2023/12/01 06:51:46;;;;;;;;;;;;;;;32.89;58.46;100619.94;5079949;27;65503;-34
2023/12/01 06:54:16;;;;;;;;;;;;;;;32.92;58.37;100624.06;5076528;27;69739;-34
2023/12/01 06:56:45;;;;;;;;;;;;;;;32.96;58.41;100632.53;5069039;28;66907;-33
2023/12/01 06:59:15;;;;;;;;;;;;;;;32.97;58.44;100618.72;5079668;27;70057;-34
2023/12/01 07:01:44;;;;;;;;;;;;;;;32.99;58.42;100621.19;5079681;27;66024;-34
2023/12/01 07:04:15;;;;;;;;;;;;;;;33.03;58.49;100620.50;5077962;27;70692;-34
2023/12/01 07:06:47;;;;;;;;;;;;;;;33.04;58.65;100618.63;5079679;27;66318;-34
2023/12/01 07:09:17;;;;;;;;;;;;;;;33.06;58.03;100611.06;5079870;27;69497;-35
2023/12/01 07:11:46;;;;;;;;;;;;;;;33.08;58.45;100611.66;5077572;27;66869;-33
2023/12/01 07:14:18;;;;;;;;;;;;;;;33.10;58.36;100607.63;5079561;28;69871;-33
2023/12/01 07:16:48;;;;;;;;;;;;;;;33.12;58.11;100604.63;5081748;27;67158;-33
2023/12/01 07:19:18;;;;;;;;;;;;;;;33.15;58.10;100615.03;5082656;27;71152;-34
2023/12/01 07:21:48;;;;;;;;;;;;;;;33.17;57.97;100607.47;5082387;27;66665;-34
2023/12/01 07:24:18;;;;;;;;;;;;;;;33.19;57.97;100604.50;5082867;27;70411;-34
2023/12/01 07:26:51;;;;;;;;;;;;;;;33.21;57.62;100608.66;5082582;27;66380;-34
2023/12/01 07:29:21;;;;;;;;;;;;;;;33.25;57.79;100609.78;5082630;28;70453;-35
2023/12/01 07:31:51;;;;;;;;;;;;;;;33.16;57.69;100594.94;5081508;28;66247;-33
2023/12/01 07:34:21;;;;;;;;;;;;;;;33.30;57.86;100609.91;5082891;27;69787;-35
2023/12/01 07:36:52;;;;;;;;;;;;;;;33.32;57.48;100599.59;5082712;27;67011;-34
2023/12/01 07:39:23;;;;;;;;;;;;;;;33.36;57.67;100598.03;5081426;27;70386;-33
2023/12/01 07:41:53;;;;;;;;;;;;;;;33.40;57.66;100594.81;5082601;27;65647;-33
2023/12/01 07:44:22;;;;;;;;;;;;;;;33.43;57.61;100583.47;5082649;27;69776;-33
2023/12/01 07:46:53;;;;;;;;;;;;;;;33.47;57.30;100587.34;5080793;27;66640;-34
2023/12/01 07:49:23;;;;;;;;;;;;;;;33.50;57.59;100597.75;5083306;27;69966;-34
2023/12/01 07:51:52;;;;;;;;;;;;;;;33.53;57.16;100591.84;5082390;27;66718;-34
2023/12/01 07:54:22;;;;;;;;;;;;;;;33.55;57.31;100587.00;5076416;27;69766;-34
2023/12/01 07:56:52;;;;;;;;;;;;;;;33.59;56.95;100588.13;5073955;28;66421;-34
2023/12/01 07:59:21;;;;;;;;;;;;;;;33.63;57.11;100589.31;5082371;27;70342;-34
2023/12/01 08:01:51;;;;;;;;;;;;;;;33.65;56.73;100589.88;5080987;28;66495;-34
2023/12/01 08:04:21;;;;;;;;;;;;;;;33.68;57.10;100586.66;5081957;27;69045;-34
2023/12/01 08:06:51;;;;;;;;;;;;;;;33.71;56.79;100583.47;5081625;27;66809;-34
2023/12/01 08:09:21;;;;;;;;;;;;;;;33.75;56.44;100575.63;5068024;28;69054;-34
2023/12/01 08:11:51;;;;;;;;;;;;;;;33.79;56.68;100572.16;5082623;27;65991;-33
2023/12/01 08:14:21;;;;;;;;;;;;;;;33.81;56.28;100580.06;5082550;27;69879;-33
2023/12/01 08:16:52;;;;;;;;;;;;;;;33.85;56.02;100574.94;5080186;27;66739;-33
2023/12/01 08:19:22;;;;;;;;;;;;;;;33.89;56.25;100578.84;5082207;28;68948;-33
2023/12/01 08:21:52;;;;;;;;;;;;;;;33.93;56.31;100582.69;5081726;27;65073;-32
2023/12/01 08:24:23;;;;;;;;;;;;;;;33.96;56.01;100590.34;5079975;27;70119;-33
2023/12/01 08:27:00;;;;;;;;;;;;;;;34.00;56.30;100584.19;5081498;27;66808;-34
2023/12/01 08:29:30;;;;;;;;;;;;;;;34.04;55.61;100606.28;5080904;27;69879;-34
2023/12/01 08:32:00;;;;;;;;;;;;;;;34.08;55.77;100609.38;5080397;28;65745;-34
2023/12/01 08:34:29;;;;;;;;;;;;;;;34.11;55.31;100606.97;5081519;27;70355;-34
2023/12/01 08:36:59;;;;;;;;;;;;;;;34.14;55.44;100622.81;5081856;27;65997;-33
2023/12/01 08:39:30;;;;;;;;;;;;;;;34.17;55.32;100633.19;5079653;27;69962;-34
2023/12/01 08:41:59;;;;;;;;;;;;;;;34.19;55.71;100633.78;5081795;27;66892;-34
2023/12/01 08:44:29;;;;;;;;;;;;;;;34.21;55.18;100633.50;5081380;27;70396;-34
2023/12/01 08:46:59;;;;;;;;;;;;;;;34.26;55.03;100647.19;5080199;28;66491;-35
2023/12/01 08:49:31;;;;;;;;;;;;;;;34.28;55.36;100644.25;5083051;27;70594;-34
2023/12/01 08:52:01;;;;;;;;;;;;;;;34.31;55.22;100654.63;5081293;27;66618;-33
2023/12/01 08:54:31;;;;;;;;;;;;;;;34.32;55.28;100650.81;5074463;28;69606;-34
2023/12/01 08:57:01;;;;;;;;;;;;;;;34.35;55.15;100643.00;5074272;28;66665;-34
2023/12/01 08:59:30;;;;;;;;;;;;;;;34.36;54.87;100635.66;5067036;27;69805;-35
2023/12/01 09:02:00;;;;;;;;;;;;;;;34.36;54.93;100635.66;5080174;27;66026;-34
2023/12/01 09:04:30;;;;;;;;;;;;;;;34.37;55.37;100631.84;5081773;27;70671;-34
2023/12/01 09:07:00;;;;;;;;;;;;;;;34.38;55.02;100633.47;5081249;27;65940;-35
2023/12/01 09:09:32;;;;;;;;;;;;;;;34.39;54.93;100632.41;5081174;27;70531;-35
2023/12/01 09:12:02;;;;;;;;;;;;;;;34.39;55.59;100629.69;5081335;27;66955;-34
2023/12/01 09:14:31;;;;;;;;;;;;;;;34.39;55.06;100624.25;5080849;27;69857;-34
2023/12/01 09:17:01;;;;;;;;;;;;;;;34.09;56.99;100627.34;5077326;28;66237;-34
2023/12/01 09:19:31;;;;;;;;;;;;;;;33.76;58.71;100627.03;5071400;27;70287;-35
2023/12/01 09:22:00;;;;;;;;;;;;;;;33.63;60.03;100631.97;5065057;27;66343;-36
2023/12/01 09:24:30;;;;;;;;;;;;;;;33.54;60.30;100637.00;5078158;28;71018;-35
2023/12/01 09:27:00;;;;;;;;;;;;;;;33.46;60.92;100642.78;5069911;28;66900;-35
2023/12/01 09:29:30;;;;;;;;;;;;;;;33.29;61.23;100621.84;5063361;28;70077;-36
2023/12/01 09:31:59;;;;;;;;;;;;;;;33.53;61.27;100644.31;5066554;27;66483;-33
2023/12/01 09:34:29;;;;;;;;;;;;;;;33.82;60.40;100652.44;5070479;28;70240;-34
2023/12/01 09:36:59;;;;;;;;;;;;;;;33.96;59.83;100650.22;5079120;28;66727;-35
2023/12/01 09:39:29;;;;;;;;;;;;;;;34.04;59.74;100649.81;5079144;27;70505;-34
2023/12/01 09:42:03;;;;;;;;;;;;;;;34.09;59.51;100644.50;5079783;28;66014;-34
2023/12/01 09:44:33;;;;;;;;;;;;;;;34.14;59.53;100650.03;5078974;27;69981;-34
2023/12/01 09:47:10;;;;;;;;;;;;;;;34.17;59.56;100654.97;5067872;28;66274;-35
2023/12/01 09:49:39;;;;;;;;;;;;;;;34.18;59.62;100645.72;5080012;27;69390;-33
2023/12/01 09:52:09;;;;;;;;;;;;;;;34.19;59.27;100647.38;5078799;27;66714;-34
2023/12/01 09:54:39;;;;;;;;;;;;;;;34.21;59.28;100655.28;5074245;28;70388;-35
2023/12/01 09:57:09;;;;;;;;;;;;;;;34.20;59.38;100668.06;5074429;28;65960;-34
2023/12/01 09:59:41;;;;;;;;;;;;;;;34.21;59.15;100664.31;5078736;27;69683;-34
2023/12/01 10:02:11;;;;;;;;;;;;;;;34.20;59.34;100665.34;5080441;28;65932;-34
2023/12/01 10:04:43;;;;;;;;;;;;;;;34.21;59.39;100671.63;5080508;27;70388;-34
2023/12/01 10:07:13;;;;;;;;;;;;;;;34.19;59.85;100685.50;5078337;28;65629;-35
2023/12/01 10:09:44;;;;;;;;;;;;;;;34.19;60.02;100680.03;5074512;28;71503;-35
2023/12/01 10:12:14;;;;;;;;;;;;;;;33.61;62.06;100670.31;5060595;28;65359;-35
2023/12/01 10:14:43;;;;;;;;;;;;;;;33.33;63.38;100671.94;5064827;28;70669;-34
2023/12/01 10:17:13;;;;;;;;;;;;;;;33.20;64.01;100676.81;5067429;27;66088;-34
2023/12/01 10:19:47;;;;;;;;;;;;;;;33.10;64.51;100683.72;5073999;27;70714;-35
2023/12/01 10:22:17;;;;;;;;;;;;;;;33.02;64.89;100685.97;5071510;28;66225;-34
2023/12/01 10:24:54;;;;;;;;;;;;;;;32.98;65.31;100690.19;5066395;28;70389;-34
2023/12/01 10:27:23;;;;;;;;;;;;;;;32.92;65.66;100692.81;5062858;28;64572;-35
2023/12/01 10:30:08;;;;;;;;;;;;;;;32.87;65.90;100695.41;5063481;28;70250;-34
2023/12/01 10:32:38;;;;;;;;;;;;;;;32.86;66.17;100692.94;5061443;28;66027;-35
2023/12/01 10:35:08;;;;;;;;;;;;;;;32.85;66.10;100703.00;5065398;28;69788;-34
2023/12/01 10:37:38;;;;;;;;;;;;;;;32.82;66.07;100697.19;5060802;28;65451;-35
2023/12/01 10:40:08;;;;;;;;;;;;;;;32.81;66.16;100706.41;5071064;28;70136;-34
2023/12/01 10:42:37;;;;;;;;;;;;;;;32.78;66.71;100704.16;5059470;27;67044;-34
2023/12/01 10:45:07;;;;;;;;;;;;;;;32.76;66.77;100712.53;5059878;28;70730;-35
2023/12/01 10:47:39;;;;;;;;;;;;;;;32.60;66.77;100686.94;5059604;28;65741;-37
2023/12/01 10:50:10;;;;;;;;;;;;;;;32.73;66.86;100702.16;5067007;28;70502;-35
2023/12/01 10:52:40;;;;;;;;;;;;;;;32.72;67.00;100719.53;5081166;27;66546;-34
2023/12/01 10:55:13;;;;;;;;;;;;;;;32.70;67.42;100722.47;5074892;28;69762;-35
2023/12/01 10:57:44;;;;;;;;;;;;;;;32.69;67.89;100720.81;5084992;27;65637;-33
2023/12/01 11:00:30;;;;;;;;;;;;;;;32.68;68.19;100723.75;5067935;28;70789;-35
2023/12/01 11:03:03;;;;;;;;;;;;;;;32.68;68.24;100723.75;5069528;27;65263;-34
2023/12/01 11:05:35;;;;;;;;;;;;;;;32.67;68.19;100739.22;5067109;28;70201;-34
2023/12/01 11:08:11;;;;;;;;;;;;;;;32.66;68.34;100737.59;5075020;28;66626;-34
2023/12/01 11:10:59;;;;;;;;;;;;;;;32.66;68.41;100747.63;5068152;27;70357;-34
2023/12/01 11:13:37;;;;;;;;;;;;;;;32.65;68.37;100751.41;5068795;27;67044;-34
2023/12/01 11:16:08;;;;;;;;;;;;;;;32.63;68.50;100759.78;5070237;28;69737;-34
2023/12/01 11:18:37;;;;;;;;;;;;;;;32.62;68.52;100765.44;5070186;28;66258;-34
2023/12/01 11:21:08;;;;;;;;;;;;;;;32.60;68.49;100762.16;5070122;28;69814;-33
2023/12/01 11:23:38;;;;;;;;;;;;;;;32.60;68.72;100771.13;5069006;28;66593;-34
2023/12/01 11:26:10;;;;;;;;;;;;;;;32.59;68.76;100768.63;5066127;28;70655;-34
2023/12/01 11:28:43;;;;;;;;;;;;;;;32.58;68.86;100783.28;5064023;27;66638;-34
2023/12/01 11:33:46;;;;;;;;;;;;;;;32.56;68.91;100798.97;5072024;28;67270;-34
2023/12/01 11:36:35;;;;;;;;;;;;;;;32.56;68.93;100796.25;5065344;28;69658;-34
2023/12/01 11:41:38;;;;;;;;;;;;;;;32.54;69.06;100798.38;5065535;28;70006;-34
2023/12/01 11:44:15;;;;;;;;;;;;;;;32.53;69.27;100796.72;5073715;27;66540;-35
2023/12/01 11:46:45;;;;;;;;;;;;;;;32.52;69.31;100800.53;5076024;28;70252;-34
2023/12/01 11:49:14;;;;;;;;;;;;;;;32.51;69.37;100804.28;5077667;28;66365;-35
2023/12/01 11:51:45;;;;;;;;;;;;;;;32.49;69.38;100810.78;5077053;28;70406;-34
2023/12/01 11:54:15;;;;;;;;;;;;;;;32.47;69.36;100810.19;5074710;27;66568;-34
2023/12/01 11:56:49;;;;;;;;;;;;;;;32.45;69.55;100817.69;5071127;27;70902;-34
2023/12/01 11:59:19;;;;;;;;;;;;;;;32.44;69.57;100821.47;5064105;28;65347;-34
2023/12/01 12:01:50;;;;;;;;;;;;;;;32.42;69.81;100815.44;5061892;28;71811;-34
2023/12/01 12:04:20;;;;;;;;;;;;;;;32.39;69.82;100817.81;5063565;28;67193;-36
2023/12/01 12:06:51;;;;;;;;;;;;;;;32.40;69.93;100823.00;5062964;28;69739;-33
2023/12/01 12:09:20;;;;;;;;;;;;;;;32.40;69.97;100828.44;5065370;28;65322;-35
2023/12/01 12:11:53;;;;;;;;;;;;;;;32.35;69.83;100833.72;5062730;28;70097;-34
2023/12/01 12:14:24;;;;;;;;;;;;;;;32.36;70.16;100835.38;5070391;28;66413;-34
2023/12/01 12:16:53;;;;;;;;;;;;;;;32.35;70.05;100830.19;5082257;28;70331;-34
2023/12/01 12:19:23;;;;;;;;;;;;;;;32.33;70.05;100835.03;5084289;27;66612;-35
2023/12/01 12:21:54;;;;;;;;;;;;;;;32.31;70.17;100843.38;5068861;27;70599;-36
2023/12/01 12:24:24;;;;;;;;;;;;;;;32.29;70.23;100840.09;5083260;27;66863;-36
2023/12/01 12:26:57;;;;;;;;;;;;;;;32.29;70.23;100840.09;5083750;27;69227;-35
2023/12/01 12:29:27;;;;;;;;;;;;;;;32.28;70.05;100846.56;5079888;27;66940;-35
2023/12/01 12:31:57;;;;;;;;;;;;;;;32.29;70.20;100853.66;5068122;28;69945;-34
2023/12/01 12:34:27;;;;;;;;;;;;;;;32.28;70.22;100860.13;5081001;27;66503;-34
2023/12/01 12:36:57;;;;;;;;;;;;;;;32.27;70.53;100856.59;5072228;27;70349;-34
2023/12/01 12:39:27;;;;;;;;;;;;;;;32.27;70.91;100858.50;5067969;28;66042;-36
2023/12/01 12:41:59;;;;;;;;;;;;;;;32.27;71.28;100853.06;5067312;28;68937;-35
2023/12/01 12:44:32;;;;;;;;;;;;;;;32.25;71.63;100852.44;5068422;28;67100;-36
2023/12/01 12:47:06;;;;;;;;;;;;;;;32.27;71.45;100847.63;5069411;27;69875;-35
2023/12/01 12:49:36;;;;;;;;;;;;;;;32.27;72.18;100861.19;5068468;27;66009;-36
2023/12/01 12:52:06;;;;;;;;;;;;;;;32.27;72.19;100863.91;5064882;27;70481;-36
2023/12/01 12:54:35;;;;;;;;;;;;;;;32.28;72.32;100860.13;5076151;28;66248;-36
2023/12/01 12:57:05;;;;;;;;;;;;;;;32.28;72.49;100863.66;5068893;28;69739;-36